createdAt,value
2019-05-12T00:00:54.523Z,8.50
2019-05-12T00:02:59.330Z,8.50
2019-05-12T00:05:04.539Z,8.40
2019-05-12T00:07:08.835Z,8.40
2019-05-12T00:09:13.034Z,8.20
2019-05-12T00:11:17.984Z,8.20
2019-05-12T00:13:21.955Z,8.20
2019-05-12T00:15:27.774Z,8.20
2019-05-12T00:17:31.505Z,8.10
2019-05-12T00:19:37.626Z,8.10
2019-05-12T00:21:40.913Z,8.10
2019-05-12T00:24:02.701Z,8.10
2019-05-12T00:26:07.950Z,8.10
2019-05-12T00:28:11.940Z,8.10
2019-05-12T00:30:18.484Z,8.20
2019-05-12T00:32:22.798Z,8.20
2019-05-12T00:34:28.680Z,8.10
2019-05-12T00:36:32.240Z,8.10
2019-05-12T00:38:38.133Z,8.00
2019-05-12T00:40:41.720Z,7.90
2019-05-12T00:42:45.597Z,7.90
2019-05-12T00:44:49.544Z,7.90
2019-05-12T00:46:53.424Z,7.80
2019-05-12T00:48:58.483Z,7.80
2019-05-12T00:51:02.657Z,7.80
2019-05-12T00:53:08.626Z,7.80
2019-05-12T00:55:12.458Z,7.80
2019-05-12T00:57:18.181Z,7.80
2019-05-12T00:59:21.892Z,7.80
2019-05-12T01:01:25.821Z,7.80
2019-05-12T01:03:29.689Z,7.90
2019-05-12T01:05:33.638Z,7.80
2019-05-12T01:07:38.277Z,7.90
2019-05-12T01:09:42.366Z,8.00
2019-05-12T01:11:48.101Z,7.90
2019-05-12T01:13:51.813Z,7.90
2019-05-12T01:15:55.880Z,7.90
2019-05-12T01:17:59.732Z,7.80
2019-05-12T01:20:04.440Z,7.80
2019-05-12T01:22:08.408Z,7.80
2019-05-12T01:24:14.049Z,7.80
2019-05-12T01:26:18.051Z,7.70
2019-05-12T01:28:22.136Z,7.70
2019-05-12T01:30:28.174Z,7.70
2019-05-12T01:32:39.101Z,7.70
2019-05-12T01:34:42.991Z,7.70
2019-05-12T01:36:48.323Z,7.70
2019-05-12T01:38:52.409Z,7.70
2019-05-12T01:40:58.376Z,7.70
2019-05-12T01:43:01.817Z,7.60
2019-05-12T01:45:09.007Z,7.60
2019-05-12T01:47:12.261Z,7.60
2019-05-12T01:49:18.501Z,7.60
2019-05-12T01:51:21.874Z,7.60
2019-05-12T01:53:25.818Z,7.60
2019-05-12T01:55:29.688Z,7.60
2019-05-12T01:57:33.648Z,7.50
2019-05-12T01:59:38.157Z,7.60
2019-05-12T02:01:42.103Z,7.50
2019-05-12T02:03:48.069Z,7.50
2019-05-12T02:05:59.257Z,7.60
2019-05-12T02:08:03.465Z,7.60
2019-05-12T02:10:09.285Z,7.60
2019-05-12T02:12:13.482Z,7.60
2019-05-12T02:14:18.314Z,7.60
2019-05-12T02:16:22.360Z,7.60
2019-05-12T02:18:28.111Z,7.50
2019-05-12T02:20:31.794Z,7.50
2019-05-12T02:22:35.722Z,7.50
2019-05-12T02:24:39.629Z,7.40
2019-05-12T02:26:43.521Z,7.40
2019-05-12T02:28:48.020Z,7.40
2019-05-12T02:30:52.112Z,7.40
2019-05-12T02:32:59.070Z,7.30
2019-05-12T02:35:01.578Z,7.30
2019-05-12T02:37:05.789Z,7.20
2019-05-12T02:39:10.088Z,7.30
2019-05-12T02:41:15.471Z,7.30
2019-05-12T02:43:20.016Z,7.30
2019-05-12T02:45:25.319Z,7.20
2019-05-12T02:47:29.774Z,7.30
2019-05-12T02:49:34.872Z,7.30
2019-05-12T02:51:39.131Z,7.20
2019-05-12T02:53:46.683Z,7.20
2019-05-12T02:55:54.103Z,7.10
2019-05-12T02:57:58.787Z,7.10
2019-05-12T03:00:05.246Z,7.00
2019-05-12T03:02:10.352Z,6.90
2019-05-12T03:04:15.079Z,7.00
2019-05-12T03:06:20.464Z,7.10
2019-05-12T03:08:25.721Z,7.10
2019-05-12T03:10:30.029Z,7.10
2019-05-12T03:12:34.573Z,7.00
2019-05-12T03:14:40.768Z,7.00
2019-05-12T03:16:45.353Z,6.90
2019-05-12T03:18:49.616Z,6.80
2019-05-12T03:20:54.720Z,6.80
2019-05-12T03:22:58.915Z,6.80
2019-05-12T03:25:11.434Z,6.70
2019-05-12T03:27:08.373Z,6.50
2019-05-12T03:29:14.749Z,6.40
2019-05-12T03:31:23.851Z,6.30
2019-05-12T03:33:33.523Z,6.30
2019-05-12T03:35:35.275Z,6.30
2019-05-12T03:37:35.328Z,6.50
2019-05-12T03:39:39.397Z,6.40
2019-05-12T03:41:44.622Z,6.20
2019-05-12T03:43:48.703Z,6.30
2019-05-12T03:45:55.744Z,6.20
2019-05-12T03:47:58.168Z,6.30
2019-05-12T03:50:04.524Z,6.30
2019-05-12T03:52:07.619Z,6.30
2019-05-12T03:54:14.863Z,6.30
2019-05-12T03:56:17.066Z,6.20
2019-05-12T03:58:20.994Z,6.20
2019-05-12T04:00:25.055Z,6.30
2019-05-12T04:02:28.914Z,6.20
2019-05-12T04:04:34.776Z,6.20
2019-05-12T04:06:38.349Z,6.10
2019-05-12T04:08:45.241Z,6.20
2019-05-12T04:10:47.806Z,6.30
2019-05-12T04:12:54.649Z,6.10
2019-05-12T04:14:57.294Z,6.20
2019-05-12T04:17:04.456Z,6.20
2019-05-12T04:19:06.730Z,6.20
2019-05-12T04:21:10.616Z,6.20
2019-05-12T04:23:15.409Z,6.10
2019-05-12T04:25:19.645Z,6.20
2019-05-12T04:27:25.057Z,6.20
2019-05-12T04:29:29.280Z,6.20
2019-05-12T04:31:34.744Z,6.10
2019-05-12T04:33:38.844Z,6.10
2019-05-12T04:35:45.143Z,6.20
2019-05-12T04:37:48.345Z,6.10
2019-05-12T04:39:55.213Z,6.20
2019-05-12T04:41:57.758Z,6.20
2019-05-12T04:44:01.682Z,6.10
2019-05-12T04:46:05.611Z,6.20
2019-05-12T04:48:09.516Z,6.20
2019-05-12T04:50:15.610Z,6.30
2019-05-12T04:52:19.341Z,6.20
2019-05-12T04:54:24.736Z,6.20
2019-05-12T04:56:29.013Z,6.20
2019-05-12T04:58:35.073Z,6.30
2019-05-12T05:00:38.469Z,6.40
2019-05-12T05:02:45.234Z,6.40
2019-05-12T05:04:47.937Z,6.40
2019-05-12T05:06:54.935Z,6.50
2019-05-12T05:08:57.416Z,6.60
2019-05-12T05:11:03.883Z,6.70
2019-05-12T05:13:06.905Z,6.80
2019-05-12T05:15:14.341Z,7.00
2019-05-12T05:17:16.894Z,7.10
2019-05-12T05:19:25.611Z,7.20
2019-05-12T05:21:29.887Z,7.30
2019-05-12T05:23:33.924Z,7.40
2019-05-12T05:25:37.848Z,7.40
2019-05-12T05:27:43.773Z,7.50
2019-05-12T05:29:48.221Z,7.50
2019-05-12T05:31:53.496Z,7.60
2019-05-12T05:33:57.558Z,7.60
2019-05-12T05:36:03.352Z,7.70
2019-05-12T05:38:10.757Z,7.80
2019-05-12T05:40:14.074Z,7.90
2019-05-12T05:42:22.092Z,7.90
2019-05-12T05:44:24.099Z,8.00
2019-05-12T05:46:28.174Z,8.00
2019-05-12T05:48:35.126Z,8.10
2019-05-12T05:50:38.474Z,8.10
2019-05-12T05:52:43.821Z,8.10
2019-05-12T05:54:47.932Z,8.10
2019-05-12T05:56:59.647Z,8.20
2019-05-12T05:58:58.949Z,8.20
2019-05-12T06:01:08.054Z,8.30
2019-05-12T06:03:15.024Z,8.30
2019-05-12T06:05:19.826Z,8.40
2019-05-12T06:07:25.486Z,8.40
2019-05-12T06:09:26.484Z,8.40
2019-05-12T06:11:30.403Z,8.50
2019-05-12T06:13:34.605Z,8.50
2019-05-12T06:15:40.929Z,8.70
2019-05-12T06:17:45.476Z,8.80
2019-05-12T06:19:53.699Z,8.90
2019-05-12T06:21:56.863Z,9.10
2019-05-12T06:24:03.497Z,9.10
2019-05-12T06:26:07.706Z,9.10
2019-05-12T06:28:11.618Z,9.20
2019-05-12T06:30:15.544Z,9.20
2019-05-12T06:32:19.434Z,9.20
2019-05-12T06:34:24.816Z,9.30
2019-05-12T06:36:28.824Z,9.30
2019-05-12T06:38:37.219Z,9.30
2019-05-12T06:40:40.996Z,9.40
2019-05-12T06:42:48.484Z,9.50
2019-05-12T06:44:55.111Z,10.00
2019-05-12T06:47:03.636Z,10.30
2019-05-12T06:49:10.230Z,10.40
2019-05-12T06:51:13.720Z,10.20
2019-05-12T06:53:14.872Z,10.20
2019-05-12T06:55:18.970Z,10.30
2019-05-12T06:57:27.918Z,10.30
2019-05-12T06:59:28.439Z,10.10
2019-05-12T07:01:33.466Z,10.10
2019-05-12T07:03:37.564Z,10.20
2019-05-12T07:05:43.223Z,10.10
2019-05-12T07:07:47.268Z,10.10
2019-05-12T07:09:54.393Z,10.10
2019-05-12T07:12:06.175Z,10.10
2019-05-12T07:14:13.167Z,10.20
2019-05-12T07:16:23.162Z,10.10
2019-05-12T07:18:31.738Z,10.10
2019-05-12T07:20:29.277Z,10.50
2019-05-12T07:22:43.877Z,10.50
2019-05-12T07:24:41.079Z,10.70
2019-05-12T07:26:47.945Z,10.80
2019-05-12T07:28:50.930Z,10.70
2019-05-12T07:30:54.833Z,10.70
2019-05-12T07:33:01.226Z,10.70
2019-05-12T07:35:07.349Z,10.90
2019-05-12T07:37:15.801Z,11.10
2019-05-12T07:39:20.541Z,11.50
2019-05-12T07:41:24.615Z,11.50
2019-05-12T07:43:29.689Z,11.60
2019-05-12T07:45:34.170Z,11.80
2019-05-12T07:47:38.205Z,11.70
2019-05-12T07:49:43.980Z,11.80
2019-05-12T07:51:50.042Z,11.90
2019-05-12T07:53:55.216Z,12.10
2019-05-12T07:55:59.939Z,12.00
2019-05-12T07:58:13.717Z,12.20
2019-05-12T08:00:20.146Z,12.10
2019-05-12T08:02:25.547Z,12.00
2019-05-12T08:04:24.219Z,12.10
2019-05-12T08:06:32.640Z,12.00
2019-05-12T08:08:34.139Z,11.90
2019-05-12T08:10:38.032Z,11.80
2019-05-12T08:12:44.295Z,11.80
2019-05-12T08:14:47.798Z,11.70
2019-05-12T08:16:54.121Z,11.60
2019-05-12T08:18:57.456Z,11.50
2019-05-12T08:21:03.814Z,11.70
2019-05-12T08:23:10.317Z,11.60
2019-05-12T08:25:13.605Z,11.70
2019-05-12T08:27:17.698Z,11.90
2019-05-12T08:29:24.276Z,11.80
2019-05-12T08:31:33.185Z,11.70
2019-05-12T08:33:34.750Z,11.80
2019-05-12T08:35:38.930Z,11.90
2019-05-12T08:37:44.219Z,12.00
2019-05-12T08:39:53.378Z,12.00
2019-05-12T08:41:54.284Z,11.90
2019-05-12T08:43:58.606Z,11.70
2019-05-12T08:46:07.024Z,11.60
2019-05-12T08:48:17.157Z,11.60
2019-05-12T08:50:15.330Z,11.60
2019-05-12T08:52:19.255Z,11.60
2019-05-12T08:54:23.382Z,11.60
2019-05-12T08:56:27.387Z,11.80
2019-05-12T08:58:46.556Z,12.00
2019-05-12T09:00:46.538Z,12.30
2019-05-12T09:02:53.908Z,12.30
2019-05-12T09:04:58.573Z,12.40
2019-05-12T09:07:04.413Z,12.50
2019-05-12T09:09:09.815Z,12.20
2019-05-12T09:11:14.959Z,12.10
2019-05-12T09:13:19.262Z,12.10
2019-05-12T09:15:24.018Z,12.00
2019-05-12T09:17:28.387Z,11.90
2019-05-12T09:19:33.181Z,12.00
2019-05-12T09:21:37.797Z,12.00
2019-05-12T09:23:45.351Z,12.10
2019-05-12T09:25:48.463Z,12.30
2019-05-12T09:27:54.222Z,12.40
2019-05-12T09:29:59.061Z,12.40
2019-05-12T09:32:09.379Z,12.60
2019-05-12T09:34:13.511Z,12.40
2019-05-12T09:36:20.050Z,12.40
2019-05-12T09:38:26.375Z,12.40
2019-05-12T09:40:30.632Z,12.50
2019-05-12T09:42:34.619Z,12.80
2019-05-12T09:44:41.298Z,12.80
2019-05-12T09:46:44.513Z,12.80
2019-05-12T09:48:52.024Z,13.00
2019-05-12T09:51:00.371Z,12.90
2019-05-12T09:53:07.048Z,12.80
2019-05-12T09:55:07.248Z,12.80
2019-05-12T09:57:11.181Z,12.70
2019-05-12T09:59:22.818Z,12.80
2019-05-12T10:01:20.769Z,12.90
2019-05-12T10:03:24.660Z,12.90
2019-05-12T10:05:30.399Z,12.90
2019-05-12T10:07:34.100Z,12.80
2019-05-12T10:09:38.005Z,12.60
2019-05-12T10:11:44.533Z,12.80
2019-05-12T10:13:47.502Z,12.90
2019-05-12T10:15:53.202Z,13.00
2019-05-12T10:18:00.233Z,13.00
2019-05-12T10:20:02.567Z,12.80
2019-05-12T10:22:06.482Z,12.60
2019-05-12T10:24:10.388Z,12.40
2019-05-12T10:26:14.862Z,12.50
2019-05-12T10:28:19.053Z,12.70
2019-05-12T10:30:23.425Z,13.00
2019-05-12T10:32:27.785Z,13.10
2019-05-12T10:34:38.133Z,13.20
2019-05-12T10:36:39.046Z,13.30
2019-05-12T10:38:43.394Z,13.20
2019-05-12T10:40:48.363Z,13.00
2019-05-12T10:42:53.525Z,12.70
2019-05-12T10:44:57.508Z,12.70
2019-05-12T10:47:04.397Z,12.90
2019-05-12T10:49:08.725Z,12.90
2019-05-12T10:51:12.601Z,12.80
2019-05-12T10:53:17.960Z,12.80
2019-05-12T10:55:23.858Z,12.80
2019-05-12T10:57:27.552Z,12.80
2019-05-12T10:59:33.367Z,12.70
2019-05-12T11:01:38.437Z,12.50
2019-05-12T11:03:50.708Z,12.30
2019-05-12T11:05:48.912Z,12.30
2019-05-12T11:07:53.963Z,12.20
2019-05-12T11:10:05.131Z,12.10
2019-05-12T11:12:03.603Z,12.20
2019-05-12T11:14:07.521Z,12.40
2019-05-12T11:16:14.008Z,12.40
2019-05-12T11:18:20.706Z,12.50
2019-05-12T11:20:25.142Z,12.70
2019-05-12T11:22:29.220Z,13.00
2019-05-12T11:24:33.705Z,13.10
2019-05-12T11:26:37.738Z,13.00
2019-05-12T11:28:41.654Z,12.80
2019-05-12T11:30:45.598Z,12.70
2019-05-12T11:32:49.481Z,12.90
2019-05-12T11:34:53.775Z,13.10
2019-05-12T11:36:57.735Z,13.20
2019-05-12T11:39:03.614Z,13.00
2019-05-12T11:41:10.014Z,12.80
2019-05-12T11:43:14.279Z,12.70
2019-05-12T11:45:18.743Z,12.80
2019-05-12T11:47:25.973Z,12.80
2019-05-12T11:49:29.026Z,13.20
2019-05-12T11:51:34.033Z,13.20
2019-05-12T11:53:38.455Z,13.00
2019-05-12T11:55:43.794Z,12.80
2019-05-12T11:57:47.950Z,12.90
2019-05-12T12:00:00.848Z,13.30
2019-05-12T12:01:58.613Z,13.70
2019-05-12T12:04:03.727Z,14.20
2019-05-12T12:06:07.988Z,14.70
2019-05-12T12:08:14.190Z,15.00
2019-05-12T12:10:17.750Z,14.50
2019-05-12T12:12:24.082Z,14.00
2019-05-12T12:14:27.315Z,13.70
2019-05-12T12:16:31.347Z,13.50
2019-05-12T12:18:35.338Z,13.60
2019-05-12T12:20:39.256Z,14.00
2019-05-12T12:22:43.683Z,14.50
2019-05-12T12:24:47.582Z,14.90
2019-05-12T12:26:53.624Z,15.30
2019-05-12T12:28:57.095Z,15.80
2019-05-12T12:31:04.499Z,15.30
2019-05-12T12:33:06.575Z,14.60
2019-05-12T12:35:14.715Z,14.10
2019-05-12T12:37:18.846Z,14.40
2019-05-12T12:39:23.761Z,15.10
2019-05-12T12:41:27.982Z,15.60
2019-05-12T12:43:31.953Z,15.80
2019-05-12T12:45:46.432Z,16.30
2019-05-12T12:47:50.753Z,16.80
2019-05-12T12:49:55.459Z,16.80
2019-05-12T12:52:00.176Z,17.50
2019-05-12T12:54:04.824Z,17.40
2019-05-12T12:56:16.140Z,16.50
2019-05-12T12:58:21.258Z,16.50
2019-05-12T13:00:32.091Z,16.30
2019-05-12T13:02:27.877Z,16.70
2019-05-12T13:04:33.977Z,16.20
2019-05-12T13:06:38.047Z,16.70
2019-05-12T13:08:43.406Z,16.20
2019-05-12T13:10:51.403Z,16.10
2019-05-12T13:12:56.598Z,17.20
2019-05-12T13:15:00.000Z,18.10
2019-05-12T13:17:05.398Z,18.20
2019-05-12T13:19:16.920Z,18.40
2019-05-12T13:21:15.685Z,19.10
2019-05-12T13:23:33.932Z,19.10
2019-05-12T13:25:26.153Z,18.60
2019-05-12T13:27:30.049Z,18.80
2019-05-12T13:29:38.317Z,19.00
2019-05-12T13:31:41.056Z,19.50
2019-05-12T13:33:49.430Z,19.70
2019-05-12T13:35:55.629Z,20.00
2019-05-12T13:38:00.416Z,19.70
2019-05-12T13:40:02.745Z,20.00
2019-05-12T13:42:10.271Z,19.50
2019-05-12T13:44:13.846Z,18.40
2019-05-12T13:46:17.935Z,17.80
2019-05-12T13:48:23.999Z,16.50
2019-05-12T13:50:27.527Z,15.90
2019-05-12T13:52:33.304Z,15.70
2019-05-12T13:54:37.339Z,15.40
2019-05-12T13:56:41.381Z,15.20
2019-05-12T13:58:45.920Z,15.60
2019-05-12T14:01:09.211Z,16.80
2019-05-12T14:03:03.268Z,17.80
2019-05-12T14:05:07.114Z,18.90
2019-05-12T14:07:09.253Z,17.70
2019-05-12T14:09:13.592Z,17.00
2019-05-12T14:11:18.905Z,16.50
2019-05-12T14:13:24.469Z,17.30
2019-05-12T14:15:28.601Z,18.30
2019-05-12T14:17:38.813Z,18.80
2019-05-12T14:19:38.036Z,19.60
2019-05-12T14:21:42.561Z,20.20
2019-05-12T14:23:46.641Z,19.80
2019-05-12T14:25:50.597Z,19.20
2019-05-12T14:27:59.428Z,19.60
2019-05-12T14:30:00.278Z,19.70
2019-05-12T14:32:05.590Z,19.90
2019-05-12T14:34:13.823Z,19.40
2019-05-12T14:36:21.683Z,18.10
2019-05-12T14:38:25.434Z,18.20
2019-05-12T14:40:29.855Z,18.10
2019-05-12T14:42:34.791Z,17.70
2019-05-12T14:44:44.003Z,17.70
2019-05-12T14:46:46.340Z,16.80
2019-05-12T14:48:50.505Z,16.20
2019-05-12T14:50:54.284Z,16.30
2019-05-12T14:52:59.705Z,17.80
2019-05-12T14:55:04.489Z,18.80
2019-05-12T14:57:08.400Z,18.10
2019-05-12T14:59:14.422Z,18.90
2019-05-12T15:01:17.848Z,19.30
2019-05-12T15:03:23.944Z,18.90
2019-05-12T15:05:27.809Z,18.00
2019-05-12T15:07:31.912Z,18.40
2019-05-12T15:09:35.845Z,19.20
2019-05-12T15:11:39.778Z,19.70
2019-05-12T15:13:43.764Z,19.20
2019-05-12T15:15:50.164Z,19.90
2019-05-12T15:17:56.630Z,20.20
2019-05-12T15:20:00.216Z,20.50
2019-05-12T15:22:07.623Z,20.20
2019-05-12T15:24:15.564Z,20.50
2019-05-12T15:26:19.694Z,20.50
2019-05-12T15:28:23.465Z,20.60
2019-05-12T15:30:26.978Z,21.10
2019-05-12T15:32:31.046Z,20.80
2019-05-12T15:34:35.056Z,20.00
2019-05-12T15:36:43.613Z,20.20
2019-05-12T15:38:48.998Z,20.20
2019-05-12T15:40:50.033Z,19.90
2019-05-12T15:42:54.956Z,20.30
2019-05-12T15:44:59.567Z,20.50
2019-05-12T15:47:03.875Z,20.20
2019-05-12T15:49:08.866Z,20.60
2019-05-12T15:51:13.684Z,20.00
2019-05-12T15:53:22.044Z,20.40
2019-05-12T15:55:25.616Z,19.50
2019-05-12T15:57:29.144Z,18.50
2019-05-12T15:59:34.465Z,18.00
2019-05-12T16:01:38.547Z,17.10
2019-05-12T16:03:43.816Z,17.20
2019-05-12T16:05:47.955Z,18.00
2019-05-12T16:07:53.920Z,18.10
2019-05-12T16:09:57.428Z,18.70
2019-05-12T16:12:09.421Z,18.70
2019-05-12T16:14:07.077Z,17.70
2019-05-12T16:16:11.036Z,16.90
2019-05-12T16:18:14.969Z,17.00
2019-05-12T16:20:20.769Z,17.70
2019-05-12T16:22:24.657Z,17.40
2019-05-12T16:24:28.604Z,17.50
2019-05-12T16:26:33.477Z,18.10
2019-05-12T16:28:38.055Z,17.90
2019-05-12T16:30:43.891Z,17.20
2019-05-12T16:32:48.131Z,18.00
2019-05-12T16:34:53.758Z,18.00
2019-05-12T16:36:57.631Z,17.70
2019-05-12T16:39:01.518Z,16.70
2019-05-12T16:41:05.476Z,16.20
2019-05-12T16:43:09.354Z,16.00
2019-05-12T16:45:14.178Z,15.50
2019-05-12T16:47:23.749Z,16.30
2019-05-12T16:49:25.115Z,17.20
2019-05-12T16:51:29.566Z,17.70
2019-05-12T16:53:34.104Z,18.00
2019-05-12T16:55:45.351Z,18.40
2019-05-12T16:57:51.513Z,18.50
2019-05-12T16:59:55.966Z,18.90
2019-05-12T17:01:59.364Z,19.30
2019-05-12T17:04:00.357Z,19.60
2019-05-12T17:06:04.274Z,19.80
2019-05-12T17:08:08.173Z,20.00
2019-05-12T17:10:16.150Z,19.50
2019-05-12T17:12:17.626Z,19.50
2019-05-12T17:14:23.419Z,19.70
2019-05-12T17:16:27.073Z,19.40
2019-05-12T17:18:30.982Z,19.00
2019-05-12T17:20:34.905Z,19.10
2019-05-12T17:22:38.819Z,18.40
2019-05-12T17:24:44.841Z,17.80
2019-05-12T17:26:48.664Z,17.10
2019-05-12T17:28:53.787Z,16.30
2019-05-12T17:30:57.808Z,16.00
2019-05-12T17:33:04.897Z,16.90
2019-05-12T17:35:10.138Z,16.10
2019-05-12T17:37:14.641Z,17.00
2019-05-12T17:39:18.738Z,17.50
2019-05-12T17:41:23.597Z,16.00
2019-05-12T17:43:27.644Z,15.20
2019-05-12T17:45:31.541Z,15.00
2019-05-12T17:47:35.429Z,14.60
2019-05-12T17:49:39.356Z,14.20
2019-05-12T17:51:43.262Z,13.90
2019-05-12T17:53:47.176Z,14.00
2019-05-12T17:55:53.972Z,13.80
2019-05-12T17:57:57.900Z,13.90
2019-05-12T18:00:06.146Z,13.80
2019-05-12T18:02:13.253Z,13.50
2019-05-12T18:04:13.984Z,13.40
2019-05-12T18:06:20.306Z,13.30
2019-05-12T18:08:32.310Z,13.40
2019-05-12T18:10:32.635Z,13.50
2019-05-12T18:12:39.377Z,13.70
2019-05-12T18:14:46.641Z,13.80
2019-05-12T18:16:45.789Z,13.40
2019-05-12T18:18:49.673Z,13.20
2019-05-12T18:20:55.585Z,13.20
2019-05-12T18:22:59.150Z,13.60
2019-05-12T18:25:04.357Z,13.40
2019-05-12T18:27:08.604Z,13.10
2019-05-12T18:29:14.535Z,13.30
2019-05-12T18:31:18.014Z,13.60
2019-05-12T18:33:32.525Z,13.80
2019-05-12T18:35:27.507Z,13.40
2019-05-12T18:37:31.417Z,13.00
2019-05-12T18:39:35.323Z,13.40
2019-05-12T18:41:39.202Z,13.50
2019-05-12T18:43:43.620Z,13.00
2019-05-12T18:45:48.705Z,13.00
2019-05-12T18:47:53.890Z,13.00
2019-05-12T18:49:58.144Z,12.90
2019-05-12T18:52:03.880Z,12.90
2019-05-12T18:54:10.480Z,12.60
2019-05-12T18:56:19.753Z,12.70
2019-05-12T18:58:21.694Z,12.30
2019-05-12T19:00:26.079Z,12.60
2019-05-12T19:02:29.941Z,12.40
2019-05-12T19:04:34.127Z,12.30
2019-05-12T19:06:39.444Z,12.10
2019-05-12T19:08:43.343Z,11.80
2019-05-12T19:10:51.184Z,11.80
2019-05-12T19:13:01.060Z,11.80
2019-05-12T19:14:58.376Z,11.80
2019-05-12T19:17:03.567Z,11.60
2019-05-12T19:19:09.878Z,11.40
2019-05-12T19:21:16.775Z,11.30
2019-05-12T19:23:18.930Z,11.30
2019-05-12T19:25:23.833Z,11.20
2019-05-12T19:27:27.945Z,11.30
2019-05-12T19:29:39.030Z,11.10
2019-05-12T19:31:45.245Z,11.00
2019-05-12T19:33:52.989Z,11.10
2019-05-12T19:35:50.311Z,11.10
2019-05-12T19:37:54.127Z,11.10
2019-05-12T19:40:06.028Z,11.00
2019-05-12T19:42:03.828Z,11.00
2019-05-12T19:44:07.935Z,10.80
2019-05-12T19:46:13.586Z,10.70
2019-05-12T19:48:26.502Z,10.60
2019-05-12T19:50:22.950Z,10.60
2019-05-12T19:52:26.837Z,10.50
2019-05-12T19:54:33.923Z,10.50
2019-05-12T19:56:39.650Z,10.60
2019-05-12T19:58:45.329Z,10.60
2019-05-12T20:00:47.504Z,10.60
2019-05-12T20:02:53.314Z,10.50
2019-05-12T20:04:57.000Z,10.30
2019-05-12T20:07:00.872Z,10.20
2019-05-12T20:09:10.755Z,10.20
2019-05-12T20:11:14.307Z,10.10
2019-05-12T20:13:17.701Z,10.10
2019-05-12T20:15:23.960Z,10.10
2019-05-12T20:17:27.169Z,10.00
2019-05-12T20:19:31.240Z,10.00
2019-05-12T20:21:35.097Z,10.10
2019-05-12T20:23:38.979Z,10.20
2019-05-12T20:25:44.260Z,10.10
2019-05-12T20:27:48.288Z,10.10
2019-05-12T20:29:53.985Z,10.10
2019-05-12T20:32:04.447Z,10.10
2019-05-12T20:34:10.939Z,10.10
2019-05-12T20:36:14.240Z,10.00
2019-05-12T20:38:19.005Z,10.00
2019-05-12T20:40:24.006Z,9.90
2019-05-12T20:42:28.311Z,9.90
2019-05-12T20:44:34.479Z,9.90
2019-05-12T20:46:38.984Z,9.80
2019-05-12T20:48:44.617Z,9.70
2019-05-12T20:50:48.637Z,9.70
2019-05-12T20:52:58.705Z,9.70
2019-05-12T20:54:59.955Z,9.60
2019-05-12T20:57:08.056Z,9.60
2019-05-12T20:59:15.438Z,9.50
2019-05-12T21:01:20.090Z,9.50
2019-05-12T21:03:24.120Z,9.50
2019-05-12T21:05:27.220Z,9.50
2019-05-12T21:07:33.600Z,9.40
2019-05-12T21:09:36.661Z,9.40
2019-05-12T21:11:41.154Z,9.30
2019-05-12T21:13:45.171Z,9.30
2019-05-12T21:15:54.138Z,9.30
2019-05-12T21:18:04.522Z,9.20
2019-05-12T21:20:04.530Z,9.10
2019-05-12T21:22:09.375Z,9.10
2019-05-12T21:24:14.088Z,9.00
2019-05-12T21:26:18.543Z,9.00
2019-05-12T21:28:24.084Z,9.00
2019-05-12T21:30:28.250Z,9.00
2019-05-12T21:32:33.900Z,8.90
2019-05-12T21:34:38.974Z,8.90
2019-05-12T21:36:44.365Z,8.80
2019-05-12T21:38:49.586Z,8.70
2019-05-12T21:40:54.244Z,8.70
2019-05-12T21:42:58.836Z,8.60
2019-05-12T21:45:04.535Z,8.50
2019-05-12T21:47:10.634Z,8.50
2019-05-12T21:49:15.504Z,8.50
2019-05-12T21:51:20.203Z,8.50
2019-05-12T21:53:24.118Z,8.40
2019-05-12T21:55:28.135Z,8.40
2019-05-12T21:57:34.349Z,8.40
2019-05-12T21:59:39.536Z,8.40
2019-05-12T22:01:45.979Z,8.40
2019-05-12T22:03:58.001Z,8.40
2019-05-12T22:05:55.788Z,8.30
2019-05-12T22:08:00.522Z,8.30
2019-05-12T22:10:06.728Z,8.20
2019-05-12T22:12:10.625Z,8.30
2019-05-12T22:14:14.496Z,8.30
2019-05-12T22:16:18.418Z,8.20
2019-05-12T22:18:23.853Z,8.20
2019-05-12T22:20:29.073Z,8.20
2019-05-12T22:22:33.296Z,8.20
2019-05-12T22:24:38.912Z,8.10
2019-05-12T22:26:44.170Z,8.00
2019-05-12T22:28:50.846Z,8.00
2019-05-12T22:30:54.248Z,7.90
2019-05-12T22:32:59.397Z,7.90
2019-05-12T22:35:05.814Z,7.90
2019-05-12T22:37:09.775Z,7.80
2019-05-12T22:39:14.294Z,7.80
2019-05-12T22:41:18.380Z,7.70
2019-05-12T22:43:23.649Z,7.70
2019-05-12T22:45:28.012Z,7.60
2019-05-12T22:47:33.462Z,7.60
2019-05-12T22:49:37.454Z,7.60
2019-05-12T22:51:43.551Z,7.50
2019-05-12T22:53:46.896Z,7.40
2019-05-12T22:55:53.287Z,7.40
2019-05-12T22:57:56.352Z,7.40
2019-05-12T23:00:00.225Z,7.40
2019-05-12T23:02:04.504Z,7.30
2019-05-12T23:04:08.609Z,7.30
2019-05-12T23:06:21.150Z,7.20
2019-05-12T23:08:18.045Z,7.20
2019-05-12T23:10:21.935Z,7.20
2019-05-12T23:12:25.868Z,7.10
2019-05-12T23:14:29.756Z,7.10
2019-05-12T23:16:33.730Z,7.10
2019-05-12T23:18:37.603Z,7.00
2019-05-12T23:20:43.706Z,7.00
2019-05-12T23:22:47.041Z,7.00
2019-05-12T23:24:50.940Z,6.90
2019-05-12T23:26:54.920Z,6.90
2019-05-12T23:28:58.822Z,6.80
2019-05-12T23:31:04.318Z,6.80
2019-05-12T23:33:08.422Z,6.80
2019-05-12T23:35:14.393Z,6.70
2019-05-12T23:37:17.922Z,6.70
2019-05-12T23:39:23.598Z,6.70
2019-05-12T23:41:27.357Z,6.60
2019-05-12T23:43:31.275Z,6.60
2019-05-12T23:45:35.201Z,6.60
2019-05-12T23:47:39.215Z,6.60
2019-05-12T23:49:44.370Z,6.60
2019-05-12T23:51:48.601Z,6.50
2019-05-12T23:53:52.569Z,6.50
2019-05-12T23:55:56.460Z,6.40
2019-05-12T23:58:00.345Z,6.40
